createdAt,value
2022-09-03T07:48:10.463Z,57.99
2022-09-03T07:53:13.692Z,57.40
2022-09-03T07:58:17.689Z,55.68
2022-09-03T08:03:26.370Z,57.40
2022-09-03T08:08:31.310Z,57.08
2022-09-03T08:13:40.803Z,54.75
2022-09-03T08:18:48.863Z,52.05
2022-09-03T08:23:54.692Z,52.71
2022-09-03T08:28:57.648Z,49.14
2022-09-03T08:44:50.043Z,51.27
2022-09-03T08:49:57.858Z,49.81
2022-09-03T08:55:17.938Z,46.95
2022-09-03T09:05:53.597Z,48.84
2022-09-03T09:11:09.047Z,46.74
2022-09-03T09:16:18.825Z,45.64
2022-09-03T09:21:31.251Z,43.92
2022-09-03T09:26:34.726Z,45.55
2022-09-03T09:31:39.911Z,41.12
2022-09-03T09:53:01.248Z,44.17
2022-09-03T09:58:10.957Z,43.94
2022-09-03T10:03:17.198Z,39.03
2022-09-03T10:08:25.624Z,37.36
2022-09-03T10:13:44.037Z,40.12
2022-09-03T10:18:54.559Z,41.64
2022-09-03T10:24:20.734Z,38.38
2022-09-03T10:29:27.650Z,41.71
2022-09-03T10:34:39.870Z,37.75
2022-09-03T10:45:38.568Z,42.98
2022-09-03T10:50:49.082Z,39.92
2022-09-03T10:56:01.136Z,39.69
2022-09-03T11:01:18.176Z,39.36
2022-09-03T11:06:26.350Z,39.31
2022-09-03T11:11:34.705Z,37.09
2022-09-03T11:16:49.686Z,37.56
2022-09-03T11:27:25.395Z,38.91
2022-09-03T11:38:00.488Z,39.60
2022-09-03T11:43:22.288Z,38.06
2022-09-03T11:59:36.595Z,40.29
2022-09-03T12:10:21.755Z,40.88
2022-09-03T12:15:50.363Z,39.98
2022-09-03T12:21:12.979Z,39.69
2022-09-03T12:31:49.672Z,40.34
2022-09-03T12:36:55.337Z,39.92
2022-09-03T12:42:03.824Z,38.53
2022-09-03T13:03:29.940Z,40.71
2022-09-03T13:08:40.180Z,39.68
2022-09-03T13:13:54.891Z,38.14
2022-09-03T13:19:13.611Z,38.90
2022-09-03T13:24:29.694Z,39.26
2022-09-03T13:29:42.268Z,38.08
2022-09-03T13:40:20.900Z,39.81
2022-09-03T13:45:31.644Z,38.79
2022-09-03T13:56:08.911Z,39.27
2022-09-03T14:01:19.184Z,38.33
2022-09-03T14:06:40.588Z,37.90
2022-09-03T14:17:21.256Z,38.73
2022-09-03T14:27:44.640Z,39.06
2022-09-03T14:32:55.804Z,38.33
2022-09-03T14:38:39.591Z,38.25
2022-09-03T14:44:20.913Z,39.38
2022-09-03T14:49:59.732Z,39.85
2022-09-03T14:55:22.906Z,39.75
2022-09-03T15:11:33.809Z,40.65
2022-09-03T15:16:48.726Z,40.43
2022-09-03T15:22:07.107Z,41.07
2022-09-03T15:27:49.068Z,41.54
2022-09-03T15:33:04.413Z,41.89
2022-09-03T15:38:14.789Z,41.21
2022-09-03T15:43:29.468Z,41.30
2022-09-03T15:48:39.684Z,42.41
2022-09-03T15:53:51.274Z,42.83
2022-09-03T15:59:04.726Z,43.09
2022-09-03T16:04:23.560Z,43.30
2022-09-03T16:09:37.186Z,44.02
2022-09-03T16:14:56.190Z,45.17
2022-09-03T16:25:34.087Z,45.40
2022-09-03T16:36:34.266Z,45.97
2022-09-03T16:52:40.067Z,46.07
2022-09-03T16:57:58.098Z,46.45
2022-09-03T17:03:26.170Z,46.87
2022-09-03T17:08:46.878Z,47.24
2022-09-03T17:14:03.935Z,47.31
2022-09-03T17:19:16.719Z,47.92
2022-09-03T17:35:38.094Z,48.33
2022-09-03T17:40:55.302Z,48.45
2022-09-03T17:57:15.246Z,48.89
2022-09-03T18:02:31.414Z,49.49
2022-09-03T18:07:44.596Z,49.96
2022-09-03T18:13:03.878Z,50.15
2022-09-03T18:18:13.125Z,50.23
2022-09-03T18:39:33.769Z,51.45
2022-09-03T18:45:06.333Z,52.58
2022-09-03T18:50:21.450Z,52.39
2022-09-03T18:55:40.935Z,53.96
2022-09-03T19:00:57.515Z,52.48
2022-09-03T19:06:09.424Z,53.40
2022-09-03T19:11:29.216Z,53.93
2022-09-03T19:16:44.884Z,53.48
2022-09-03T19:27:45.951Z,53.86
2022-09-03T19:38:30.913Z,53.35
2022-09-03T19:43:49.856Z,54.13
2022-09-03T20:10:31.352Z,53.67
2022-09-03T20:15:46.690Z,54.52
2022-09-03T20:20:57.468Z,54.38
2022-09-03T20:26:21.299Z,54.40
2022-09-03T20:36:56.841Z,53.14
2022-09-03T20:48:06.794Z,52.58
2022-09-03T20:53:23.970Z,52.58
2022-09-03T21:04:05.786Z,52.51
2022-09-03T21:14:50.768Z,52.51
2022-09-03T21:20:07.972Z,52.61
2022-09-03T21:25:16.732Z,52.37
2022-09-03T21:35:45.755Z,52.08
2022-09-03T21:40:55.743Z,51.87
2022-09-03T21:46:07.013Z,51.68
2022-09-03T21:57:18.882Z,51.65
2022-09-03T22:02:31.650Z,51.63
2022-09-03T22:07:58.295Z,51.54
2022-09-03T22:13:16.340Z,51.44
2022-09-03T22:18:29.368Z,51.28
2022-09-03T22:23:41.484Z,51.24
2022-09-03T22:28:54.977Z,50.62
2022-09-03T22:34:15.207Z,50.47
2022-09-03T22:45:02.010Z,50.10
2022-09-03T22:50:13.979Z,49.83
2022-09-03T22:55:21.843Z,49.34
2022-09-03T23:00:35.311Z,48.92
2022-09-03T23:05:45.049Z,49.29
2022-09-03T23:32:33.858Z,49.53
2022-09-03T23:37:50.858Z,49.49
2022-09-03T23:43:12.002Z,49.52
2022-09-03T23:48:39.949Z,49.71
2022-09-03T23:54:02.508Z,50.00
2022-09-03T23:59:20.375Z,50.32
